aviador You're here:

OINZ Decoded Metar

DASHT-E-NAZ in IRAN
Report Time2017-10-17 20:00:00
UTC Time2017-10-17 20:32:30
Flight Rules vfr VFR
WindVRB at 02 kt
Visibility9999 m
Phenomena:N/A
Clouds:N/A
Expected CloudBase > 2,000 ft AGL from Temp-Dew spread
CeilingNone
Temp13°C (ISA -2)
Dew Point08°C (72% RH)
AAT11.8°C
QNH1021 hPa
Density Alt-318 ft
Elevation36 ft
Report Wrong Elevation
Raw Report
OINZ 172000Z VRB02KT CAVOK 13/08 Q1021=

Extra information for OINZ:More info

Metar Taf Metar & Taf Last 4 Metars F.Rules Stats Wind Profile Meteogram Temp Stats Airport Information Weather charts Add Link Nearby VenuesMetar ALERT Operation Metar Decoded Social comments